Terminal Aerodrome Forecast
Issued by NWS

Home | Current Version | Previous Version | Text Only | Print | Product List | Glossary On
Versions: 1 2 3 4 5 6 7 8 9 10 11 12 13 14 15 16 17 18 19
000
FTUS44 KCRP 222300
TAFALI
TAF
KALI 222330Z 2300/2324 12011G16KT P6SM FEW040 SCT250
     FM230200 15008KT P6SM FEW015
     FM230800 VRB03KT 5SM BR FEW010
      TEMPO 2310/2314 2SM BR BKN010
     FM231400 16006KT P6SM SCT030
     FM232000 13011KT P6SM SCT045 BKN250=

USA.gov is the U.S. government's official web portal to all federal, state and local government web resources and services.